Time;durP1;ratioP1;P1;durP2;ratioP2;P2;SDS_P1;SDS_P2;PMS_P1;PMS_P2;Temp;Humidity;BMP_temperature;BMP_pressure;BME280_temperature;BME280_humidity;BME280_pressure;Samples;Min_cycle;Max_cycle;Signal;HPM_P1;HPM_P2
2022/10/04 00:02:04;;;;;;;11.43;2.80;;;;;;;10.04;100.00;100798.82;5041864;58;1141075;-65
2022/10/04 00:07:18;;;;;;;17.57;2.83;;;;;;;10.05;100.00;100806.64;5122407;57;1141133;-68
2022/10/04 00:12:27;;;;;;;18.95;3.15;;;;;;;10.05;100.00;100803.16;5125105;57;1141363;-67
2022/10/04 00:17:34;;;;;;;14.03;2.87;;;;;;;10.02;100.00;100800.72;5124983;57;1141299;-66
2022/10/04 00:22:45;;;;;;;11.80;2.83;;;;;;;10.01;100.00;100803.84;5124798;57;1141109;-69
2022/10/04 00:28:23;;;;;;;18.10;2.70;;;;;;;9.98;100.00;100800.09;5139860;56;1141077;-68
2022/10/04 00:33:56;;;;;;;8.63;2.23;;;;;;;9.94;100.00;100801.25;5192028;56;1137208;-68
2022/10/04 00:39:12;;;;;;;10.07;3.27;;;;;;;9.91;100.00;100804.61;5125322;57;1139030;-67
2022/10/04 00:44:35;;;;;;;11.28;2.42;;;;;;;9.84;100.00;100802.86;5170807;56;1141087;-65
2022/10/04 00:49:44;;;;;;;13.10;2.73;;;;;;;9.78;100.00;100809.40;5124680;57;1141101;-68
2022/10/04 00:54:59;;;;;;;17.27;3.87;;;;;;;9.74;100.00;100812.38;5151344;57;1141174;-65
2022/10/04 01:00:10;;;;;;;23.33;3.97;;;;;;;9.70;100.00;100809.58;5210153;56;1141269;-69
2022/10/04 01:05:26;;;;;;;17.10;2.73;;;;;;;9.66;100.00;100807.62;5124647;57;1141087;-68
2022/10/04 01:10:47;;;;;;;6.57;1.93;;;;;;;9.64;100.00;100808.20;5164969;56;1141084;-69
2022/10/04 01:16:03;;;;;;;18.47;2.83;;;;;;;9.65;100.00;100814.32;5127999;57;1139095;-67
2022/10/04 01:21:26;;;;;;;13.63;2.53;;;;;;;9.61;100.00;100804.95;5128564;57;1141112;-67
2022/10/04 01:26:38;;;;;;;9.10;2.50;;;;;;;9.57;100.00;100802.14;5187788;56;1141060;-68
2022/10/04 01:31:49;;;;;;;8.33;1.90;;;;;;;9.53;100.00;100800.17;5214497;56;1139098;-66
2022/10/04 01:36:59;;;;;;;10.87;3.13;;;;;;;9.51;100.00;100802.92;5053260;57;1139177;-69
2022/10/04 01:42:17;;;;;;;17.30;3.50;;;;;;;9.49;100.00;100800.85;5128605;57;1139072;-69
2022/10/04 01:47:39;;;;;;;9.50;2.10;;;;;;;9.49;100.00;100807.93;5128561;57;1139156;-70
2022/10/04 01:52:54;;;;;;;10.97;2.97;;;;;;;9.54;100.00;100804.51;5213658;56;1136878;-69
2022/10/04 01:58:13;;;;;;;12.70;2.13;;;;;;;9.52;100.00;100802.45;5125290;57;1139166;-68
2022/10/04 02:03:31;;;;;;;10.73;2.13;;;;;;;9.47;100.00;100802.75;5155300;57;1139059;-66
2022/10/04 02:08:42;;;;;;;13.63;2.50;;;;;;;9.46;100.00;100802.88;5201488;56;1139027;-66
2022/10/04 02:13:51;;;;;;;13.23;2.70;;;;;;;9.42;100.00;100810.16;5045784;58;1136945;-67
2022/10/04 02:18:58;;;;;;;19.37;3.50;;;;;;;9.40;100.00;100812.53;5128683;57;1141128;-69
2022/10/04 02:24:07;;;;;;;15.83;2.80;;;;;;;9.37;100.00;100814.05;5211497;56;1141065;-69
2022/10/04 02:29:13;;;;;;;16.70;2.10;;;;;;;9.37;100.00;100815.38;5095629;57;1141169;-66
2022/10/04 02:34:19;;;;;;;10.67;2.67;;;;;;;9.36;100.00;100817.16;5180750;56;1141075;-69
2022/10/04 02:39:35;;;;;;;9.03;2.00;;;;;;;9.31;100.00;100819.77;5033506;58;1141150;-68
2022/10/04 02:44:45;;;;;;;11.80;1.90;;;;;;;9.24;100.00;100811.88;5035405;57;1139035;-68
2022/10/04 02:49:55;;;;;;;9.80;1.93;;;;;;;9.18;100.00;100799.92;5079967;57;1141092;-67
2022/10/04 02:55:05;;;;;;;10.57;2.23;;;;;;;9.13;100.00;100808.17;5150413;56;1139037;-67
2022/10/04 03:00:21;;;;;;;11.67;2.70;;;;;;;9.11;100.00;100817.98;5080043;57;1141161;-67
2022/10/04 03:05:27;;;;;;;12.87;2.37;;;;;;;9.12;100.00;100817.03;5075319;57;1141222;-66
2022/10/04 03:10:34;;;;;;;13.03;2.67;;;;;;;9.10;100.00;100815.44;5012807;58;1141072;-69
2022/10/04 03:15:40;;;;;;;9.43;2.53;;;;;;;9.11;100.00;100811.86;4975903;59;1141176;-66
2022/10/04 03:20:47;;;;;;;19.53;3.20;;;;;;;9.09;100.00;100813.27;5051420;58;1139066;-66
2022/10/04 03:26:33;;;;;;;10.83;2.47;;;;;;;9.10;100.00;100816.28;5221473;56;1141196;-67
2022/10/04 03:31:46;;;;;;;12.90;2.17;;;;;;;9.09;100.00;100811.11;5153088;56;1141068;-66
2022/10/04 03:36:55;;;;;;;11.80;3.13;;;;;;;9.10;100.00;100822.88;5200981;56;1141381;-69
2022/10/04 03:42:14;;;;;;;15.27;2.77;;;;;;;9.10;100.00;100829.95;5138975;56;1141191;-69
2022/10/04 03:47:27;;;;;;;14.90;3.00;;;;;;;9.10;100.00;100822.03;5186743;56;1141119;-70
2022/10/04 03:52:36;;;;;;;12.28;2.37;;;;;;;9.09;100.00;100825.14;5215243;56;1139063;-68
2022/10/04 03:57:43;;;;;;;11.43;2.87;;;;;;;9.07;100.00;100830.15;5221929;56;1139263;-66
2022/10/04 04:03:01;;;;;;;11.17;2.80;;;;;;;9.04;100.00;100830.34;5200500;56;1139249;-69
2022/10/04 04:08:26;;;;;;;18.00;2.97;;;;;;;9.02;100.00;100836.19;5169985;56;1139060;-67
2022/10/04 04:13:57;;;;;;;24.50;3.17;;;;;;;9.02;100.00;100840.15;5186449;56;1139067;-67
2022/10/04 04:19:07;;;;;;;8.43;2.33;;;;;;;9.01;100.00;100843.27;5222046;56;1139058;-68
2022/10/04 04:24:26;;;;;;;14.17;2.60;;;;;;;8.99;100.00;100843.86;5222232;56;1134929;-66
2022/10/04 04:29:48;;;;;;;13.53;3.87;;;;;;;8.98;100.00;100855.83;5218793;56;1141315;-68
2022/10/04 04:35:05;;;;;;;21.13;5.10;;;;;;;8.98;100.00;100855.36;5200773;56;1141054;-67
2022/10/04 04:40:21;;;;;;;;;;;;;;;8.99;100.00;100861.48;5114317;57;1141073;-68
2022/10/04 04:45:30;;;;;;;14.47;4.80;;;;;;;8.96;100.00;100863.00;5203888;56;976488;-68
2022/10/04 04:50:39;;;;;;;12.30;4.03;;;;;;;8.96;100.00;100863.84;5218340;56;1139253;-67
2022/10/04 04:55:52;;;;;;;20.00;5.47;;;;;;;8.97;100.00;100872.13;5194921;56;1141234;-68
2022/10/04 05:01:08;;;;;;;19.27;4.57;;;;;;;9.00;100.00;100878.53;5221944;56;1141362;-68
2022/10/04 05:06:25;;;;;;;18.60;5.80;;;;;;;9.02;100.00;100881.04;5221891;56;1141149;-67
2022/10/04 05:11:38;;;;;;;14.57;5.23;;;;;;;9.05;100.00;100888.77;5221851;56;1141110;-66
2022/10/04 05:16:50;;;;;;;22.63;5.07;;;;;;;9.07;100.00;100884.23;5222007;56;1141342;-68
2022/10/04 05:21:57;;;;;;;;;;;;;;;9.07;100.00;100896.11;5225449;56;1141270;-68
2022/10/04 05:27:11;;;;;;;19.53;6.47;;;;;;;9.09;100.00;100902.98;5224465;56;976465;-67
2022/10/04 05:32:30;;;;;;;25.83;6.53;;;;;;;9.07;100.00;100908.83;5229399;56;1139048;-67
2022/10/04 05:38:18;;;;;;;16.63;5.43;;;;;;;9.09;100.00;100914.86;5157312;56;1141315;-69
2022/10/04 05:43:54;;;;;;;19.40;6.17;;;;;;;9.09;100.00;100917.50;5176714;56;1138970;-68
2022/10/04 05:49:08;;;;;;;15.70;6.73;;;;;;;9.11;100.00;100929.27;5185616;56;1139275;-70
2022/10/04 05:54:20;;;;;;;16.70;4.57;;;;;;;9.17;100.00;100932.81;5178268;56;1139064;-70
2022/10/04 05:59:39;;;;;;;16.67;5.17;;;;;;;9.22;100.00;100937.80;5198850;56;1139351;-70
2022/10/04 06:05:14;;;;;;;18.85;5.47;;;;;;;9.23;100.00;100933.75;5230269;55;1141090;-67
2022/10/04 06:10:53;;;;;;;9.53;4.73;;;;;;;9.26;100.00;100945.42;5244400;55;1141329;-67
2022/10/04 06:16:15;;;;;;;12.28;5.10;;;;;;;9.26;100.00;100957.30;5158153;56;1139188;-67
2022/10/04 06:21:31;;;;;;;14.97;4.83;;;;;;;9.33;100.00;100957.26;5213938;56;1141193;-68
2022/10/04 06:26:44;;;;;;;19.57;5.90;;;;;;;9.38;100.00;100967.05;5187863;56;1141087;-65
2022/10/04 06:32:00;;;;;;;21.30;8.40;;;;;;;9.42;100.00;100965.07;5135774;57;1141174;-67
2022/10/04 06:37:37;;;;;;;15.30;5.47;;;;;;;9.47;100.00;100973.04;5256074;55;1141220;-66
2022/10/04 06:43:19;;;;;;;16.67;6.87;;;;;;;9.52;100.00;100980.20;5289857;55;1141139;-68
2022/10/04 06:49:04;;;;;;;12.23;4.57;;;;;;;9.59;100.00;100983.30;5159327;56;1139045;-67
2022/10/04 06:54:30;;;;;;;13.53;5.30;;;;;;;9.59;100.00;100983.30;5207338;56;1139071;-68
2022/10/04 07:00:00;;;;;;;15.47;4.53;;;;;;;9.71;100.00;100986.91;5192348;56;1139040;-67
2022/10/04 07:05:29;;;;;;;11.93;4.40;;;;;;;9.79;100.00;100986.75;5262651;56;1140961;-69
2022/10/04 07:10:51;;;;;;;9.17;3.80;;;;;;;9.86;100.00;101001.27;5205107;56;1141292;-69
2022/10/04 07:16:04;;;;;;;9.40;4.27;;;;;;;9.97;100.00;101005.81;5190047;57;1139156;-66
2022/10/04 07:21:16;;;;;;;9.53;3.93;;;;;;;10.06;100.00;101007.86;5185397;56;1139101;-67
2022/10/04 07:26:47;;;;;;;20.70;6.77;;;;;;;10.17;100.00;101015.05;5167788;56;1141594;-68
2022/10/04 07:32:16;;;;;;;31.30;11.53;;;;;;;10.23;100.00;101012.85;5136488;57;1143001;-66
2022/10/04 07:37:23;;;;;;;13.80;4.10;;;;;;;10.34;100.00;101009.97;5211814;56;1145331;-70
2022/10/04 07:42:51;;;;;;;16.73;3.70;;;;;;;10.43;100.00;101005.36;5222044;56;1143151;-70
2022/10/04 07:48:10;;;;;;;19.57;4.37;;;;;;;10.60;100.00;101007.67;5222060;56;1143467;-68
2022/10/04 07:53:25;;;;;;;10.63;4.00;;;;;;;10.85;100.00;101006.78;5259270;56;1143227;-66
2022/10/04 07:58:46;;;;;;;5.97;2.37;;;;;;;10.92;100.00;101012.87;5240408;55;1141125;-68
2022/10/04 08:04:11;;;;;;;11.23;3.03;;;;;;;11.11;100.00;101024.80;5136077;57;1139419;-67
2022/10/04 08:09:37;;;;;;;11.13;2.80;;;;;;;11.26;100.00;101019.25;5160320;56;1141350;-67
2022/10/04 08:15:15;;;;;;;15.13;3.07;;;;;;;11.55;100.00;101030.84;5203979;56;1141120;-70
2022/10/04 08:20:38;;;;;;;10.78;3.15;;;;;;;11.55;100.00;101030.84;5186291;56;1143415;-69
2022/10/04 08:26:08;;;;;;;21.63;6.53;;;;;;;11.62;100.00;101036.87;5147362;56;1143073;-71
2022/10/04 08:31:28;;;;;;;15.37;2.60;;;;;;;11.74;100.00;101040.93;5108571;56;1143461;-67
2022/10/04 08:37:08;;;;;;;9.00;1.93;;;;;;;11.83;100.00;101047.73;5144429;56;1143176;-69
2022/10/04 08:42:40;;;;;;;13.63;3.00;;;;;;;11.92;100.00;101047.04;5113699;56;1141348;-68
2022/10/04 08:48:32;;;;;;;11.00;2.63;;;;;;;12.03;100.00;101052.03;5175310;56;1143229;-69
2022/10/04 08:53:59;;;;;;;8.03;1.93;;;;;;;12.13;100.00;101055.20;5192640;56;1141150;-67
2022/10/04 08:59:46;;;;;;;12.50;2.10;;;;;;;12.30;100.00;101049.46;5219601;56;1139053;-69
2022/10/04 09:05:15;;;;;;;17.23;6.73;;;;;;;12.45;100.00;101054.55;5219879;56;1141278;-70
2022/10/04 09:11:09;;;;;;;9.97;3.13;;;;;;;12.69;100.00;101053.97;5177300;56;1143122;-68
2022/10/04 09:16:51;;;;;;;10.03;2.00;;;;;;;12.86;100.00;101060.14;5130129;57;1141181;-68
2022/10/04 09:22:07;;;;;;;6.77;1.87;;;;;;;13.11;100.00;101063.53;5133709;57;1143434;-68
2022/10/04 09:27:35;;;;;;;7.17;1.87;;;;;;;13.17;100.00;101086.47;5133703;57;1141121;-67
2022/10/04 09:33:10;;;;;;;13.00;2.90;;;;;;;13.01;100.00;101083.30;5138886;56;1141073;-70
2022/10/04 09:38:49;;;;;;;6.83;1.60;;;;;;;13.20;100.00;101086.72;5192552;55;1143557;-68
2022/10/04 09:44:12;;;;;;;5.93;1.60;;;;;;;13.70;100.00;101090.14;5177020;56;1138959;-67
2022/10/04 09:49:52;;;;;;;10.88;2.47;;;;;;;13.97;100.00;101088.35;5154249;56;1139037;-67
2022/10/04 09:55:20;;;;;;;5.37;1.30;;;;;;;14.12;100.00;101084.91;5174702;56;1141105;-68
2022/10/04 10:00:46;;;;;;;3.83;1.30;;;;;;;14.20;100.00;101093.59;5177157;56;1141123;-69
2022/10/04 10:06:30;;;;;;;7.50;1.70;;;;;;;14.24;100.00;101083.88;5073778;56;1141229;-67
2022/10/04 10:17:55;;;;;;;6.57;1.40;;;;;;;14.51;100.00;101089.22;5203538;56;1138985;-70
2022/10/04 10:23:30;;;;;;;8.73;1.70;;;;;;;14.64;98.73;101088.53;5169093;56;1141136;-65
2022/10/04 10:29:01;;;;;;;5.47;1.57;;;;;;;14.82;97.39;101086.11;5170926;56;1139180;-68
2022/10/04 10:34:51;;;;;;;8.23;1.40;;;;;;;14.82;97.39;101086.11;5196283;56;1137190;-70
2022/10/04 10:40:44;;;;;;;7.03;1.83;;;;;;;14.72;95.09;101110.84;5212707;56;1137022;-68
2022/10/04 10:46:09;;;;;;;4.17;1.60;;;;;;;14.91;95.66;101119.44;5164648;56;1139139;-70
2022/10/04 10:51:48;;;;;;;5.87;1.60;;;;;;;14.77;95.84;101125.95;5072339;57;1139166;-70
2022/10/04 10:57:16;;;;;;;6.97;1.30;;;;;;;14.72;92.90;101125.98;5081329;57;1139165;-70
2022/10/04 11:02:38;;;;;;;7.53;1.70;;;;;;;14.86;96.58;101127.45;5131488;57;1139079;-69
2022/10/04 11:08:22;;;;;;;6.30;1.63;;;;;;;14.81;94.58;101123.88;5160137;56;1139141;-65
2022/10/04 11:13:55;;;;;;;6.47;1.33;;;;;;;14.69;92.72;101134.22;5220759;55;1139235;-69
2022/10/04 11:19:54;;;;;;;3.30;1.57;;;;;;;14.87;95.42;101136.65;5221555;56;1136978;-70
2022/10/04 11:25:42;;;;;;;5.60;2.10;;;;;;;15.41;93.74;101135.02;5220144;56;1136904;-68
2022/10/04 11:31:22;;;;;;;4.80;1.20;;;;;;;15.79;91.03;101144.12;5219580;56;1139039;-67
2022/10/04 11:36:52;;;;;;;7.83;1.87;;;;;;;15.80;87.45;101141.81;5174277;56;1138915;-70
2022/10/04 11:42:20;;;;;;;5.03;1.33;;;;;;;15.98;85.18;101137.98;5199362;56;1138959;-68
2022/10/04 11:47:51;;;;;;;6.57;1.50;;;;;;;16.08;87.88;101139.67;5129833;56;1139071;-69
2022/10/04 11:53:40;;;;;;;5.03;1.40;;;;;;;15.97;86.92;101138.47;5219910;56;1139158;-70
2022/10/04 11:59:02;;;;;;;5.37;1.40;;;;;;;16.01;84.75;101134.55;5220037;56;1139016;-69
2022/10/04 12:04:41;;;;;;;4.43;1.17;;;;;;;16.17;87.10;101136.67;5173366;56;1139230;-67
2022/10/04 12:10:00;;;;;;;4.70;1.60;;;;;;;16.06;84.42;101138.12;5134419;56;1137017;-66
2022/10/04 12:15:29;;;;;;;6.43;1.60;;;;;;;16.05;83.26;101148.44;5165533;56;1137125;-69
2022/10/04 12:21:05;;;;;;;8.33;1.73;;;;;;;15.92;85.23;101143.38;5085223;57;1136926;-66
2022/10/04 12:26:31;;;;;;;5.47;2.17;;;;;;;16.12;84.63;101131.75;5122878;57;1139044;-67
2022/10/04 12:31:53;;;;;;;5.93;2.23;;;;;;;16.37;82.85;101133.00;5136434;57;1139248;-69
2022/10/04 12:37:31;;;;;;;5.73;1.50;;;;;;;16.45;83.94;101136.31;5136094;57;1139072;-68
2022/10/04 12:43:08;;;;;;;6.17;1.70;;;;;;;16.67;81.27;101136.02;5214905;56;1139094;-70
2022/10/04 12:48:40;;;;;;;6.70;2.00;;;;;;;16.59;79.87;101139.03;5132289;57;1139025;-69
2022/10/04 12:54:04;;;;;;;5.33;1.90;;;;;;;16.67;80.35;101136.51;5175162;56;1139022;-68
2022/10/04 12:59:24;;;;;;;6.43;2.03;;;;;;;16.89;81.67;101137.53;5142029;56;1139135;-70
2022/10/04 13:04:49;;;;;;;6.33;2.17;;;;;;;17.02;78.22;101144.73;5159738;56;1137147;-67
2022/10/04 13:10:32;;;;;;;4.43;1.27;;;;;;;16.96;77.83;101143.16;5135842;56;1136982;-68
2022/10/04 13:15:57;;;;;;;7.00;1.82;;;;;;;16.99;77.41;101141.01;5180303;56;1137000;-67
2022/10/04 13:21:13;;;;;;;2.53;1.30;;;;;;;16.70;77.64;101148.25;5136429;57;1135128;-67
2022/10/04 13:26:40;;;;;;;4.40;1.27;;;;;;;16.31;76.59;101153.60;5134545;57;1139025;-67
2022/10/04 13:32:09;;;;;;;6.13;1.07;;;;;;;16.47;77.83;101146.36;5133207;57;1139029;-69
2022/10/04 13:37:32;;;;;;;6.50;1.83;;;;;;;16.65;74.42;101143.33;5111740;56;1139070;-70
2022/10/04 13:42:54;;;;;;;9.07;2.50;;;;;;;16.78;73.32;101151.06;5151367;56;1139100;-67
2022/10/04 13:48:22;;;;;;;14.67;6.50;;;;;;;16.90;73.71;101163.27;5187375;56;1139036;-70
2022/10/04 13:59:48;;;;;;;13.27;6.50;;;;;;;16.55;74.84;101166.51;5209444;56;1139005;-70
2022/10/04 14:05:36;;;;;;;14.45;7.22;;;;;;;16.74;77.12;101153.17;5219673;56;1138956;-70
2022/10/04 14:10:49;;;;;;;9.00;4.80;;;;;;;17.01;72.85;101146.20;5219724;56;1139321;-69
2022/10/04 14:16:19;;;;;;;;;;;;;;;17.07;73.54;101148.31;5222035;56;1137066;-67
2022/10/04 14:21:50;;;;;;;9.00;4.40;;;;;;;17.09;73.97;101152.53;5223037;56;976319;-67
2022/10/04 14:27:22;;;;;;;11.50;3.37;;;;;;;17.12;73.84;101148.20;5230282;55;1136967;-69
2022/10/04 14:32:47;;;;;;;13.40;5.53;;;;;;;17.21;75.66;101152.69;5274564;55;1141141;-68
2022/10/04 14:38:07;;;;;;;16.23;5.93;;;;;;;17.29;75.49;101154.62;5219939;56;1141215;-70
2022/10/04 14:43:38;;;;;;;14.53;3.10;;;;;;;17.35;74.67;101160.73;5284610;55;1141146;-66
2022/10/04 14:49:18;;;;;;;4.87;2.30;;;;;;;17.32;72.34;101153.48;5308649;55;1141117;-69
2022/10/04 14:54:34;;;;;;;9.93;4.90;;;;;;;17.26;73.09;101158.95;4915062;59;1139220;-65
2022/10/04 15:00:20;;;;;;;11.43;4.97;;;;;;;17.23;74.72;101151.21;4973324;59;1139116;-67
2022/10/04 15:05:35;;;;;;;7.63;3.47;;;;;;;17.13;73.23;101151.72;4973259;59;1139101;-67
2022/10/04 15:11:02;;;;;;;8.43;2.83;;;;;;;17.13;74.34;101158.41;4973324;59;1137067;-70
2022/10/04 15:16:37;;;;;;;10.60;4.77;;;;;;;17.24;73.98;101162.26;4865350;59;1137223;-68
2022/10/04 15:22:15;;;;;;;17.07;5.40;;;;;;;16.86;74.63;101168.05;4895598;60;1141360;-65
2022/10/04 15:27:37;;;;;;;11.23;5.80;;;;;;;16.57;76.68;101179.72;4904096;59;1141235;-66
2022/10/04 15:33:15;;;;;;;20.72;9.10;;;;;;;16.50;77.93;101181.61;5219905;56;1141125;-71
2022/10/04 15:38:36;;;;;;;10.80;4.10;;;;;;;16.61;78.94;101185.14;5228068;55;1141119;-68
2022/10/04 15:44:12;;;;;;;8.60;3.87;;;;;;;17.57;78.24;101184.89;5233434;55;1141327;-68
2022/10/04 15:49:40;;;;;;;9.15;3.98;;;;;;;18.47;75.56;101192.97;5173877;56;1139018;-71
2022/10/04 15:55:12;;;;;;;13.93;7.35;;;;;;;19.01;74.15;101191.56;5149390;56;1138987;-69
2022/10/04 16:00:26;;;;;;;17.10;7.10;;;;;;;18.98;73.28;101187.35;5100231;56;1139020;-68
2022/10/04 16:05:59;;;;;;;14.00;8.05;;;;;;;18.13;73.61;101187.94;5080317;57;1139256;-66
2022/10/04 16:11:31;;;;;;;16.07;8.43;;;;;;;17.26;75.47;101185.68;5148271;56;1139081;-67
2022/10/04 16:17:03;;;;;;;16.93;7.77;;;;;;;16.56;76.95;101186.89;5185498;55;1136879;-69
2022/10/04 16:22:22;;;;;;;19.93;7.60;;;;;;;16.18;79.14;101199.25;5191190;55;1141068;-70
2022/10/04 16:27:44;;;;;;;35.53;10.33;;;;;;;16.07;80.61;101190.51;5190087;55;1141094;-68
2022/10/04 16:33:30;;;;;;;31.95;11.25;;;;;;;15.94;81.31;101191.26;5218237;56;1143094;-69
2022/10/04 16:44:39;;;;;;;46.17;22.67;;;;;;;15.63;82.21;101192.64;5061960;56;1143184;-69
2022/10/04 16:49:56;;;;;;;33.70;11.97;;;;;;;15.45;83.15;101201.73;5171096;56;1143208;-70
2022/10/04 16:55:21;;;;;;;29.97;11.03;;;;;;;15.27;83.19;101201.17;5194493;56;1143476;-67
2022/10/04 17:00:37;;;;;;;20.97;9.67;;;;;;;15.14;83.95;101210.69;5220040;56;1141330;-68
2022/10/04 17:06:12;;;;;;;22.47;10.13;;;;;;;15.05;84.70;101214.15;5189958;56;1139138;-68
2022/10/04 17:12:11;;;;;;;40.83;10.30;;;;;;;15.01;85.11;101224.70;5218749;56;1141321;-69
2022/10/04 17:17:45;;;;;;;48.93;12.13;;;;;;;14.97;85.34;101232.62;5210089;56;1142979;-69
2022/10/04 17:23:11;;;;;;;78.40;31.53;;;;;;;14.82;85.69;101232.58;5154040;56;1143187;-68
2022/10/04 17:28:33;;;;;;;83.83;36.30;;;;;;;14.74;86.37;101227.88;5201836;56;1143195;-72
2022/10/04 17:34:14;;;;;;;73.57;27.90;;;;;;;14.63;86.51;101233.27;5198624;56;1143196;-69
2022/10/04 17:39:43;;;;;;;99.33;47.03;;;;;;;14.48;86.61;101224.73;5151240;56;1143236;-68
2022/10/04 17:45:25;;;;;;;174.73;106.80;;;;;;;14.35;87.17;101229.35;5181145;56;1143301;-69
2022/10/04 17:56:10;;;;;;;77.90;38.47;;;;;;;14.13;87.36;101238.22;5205211;56;1141019;-70
2022/10/04 18:01:31;;;;;;;69.80;36.70;;;;;;;13.89;87.65;101230.91;5221951;56;1141406;-71
2022/10/04 18:06:58;;;;;;;71.43;37.43;;;;;;;13.84;88.39;101226.43;5222003;56;1141335;-70
2022/10/04 18:12:08;;;;;;;91.15;47.62;;;;;;;13.71;88.59;101237.20;5221740;56;1139048;-68
2022/10/04 18:17:38;;;;;;;35.75;20.57;;;;;;;13.39;88.80;101226.44;5190722;56;1143145;-67
2022/10/04 18:23:06;;;;;;;29.83;16.57;;;;;;;13.17;89.24;101233.89;5196686;56;1143190;-68
2022/10/04 18:28:20;;;;;;;33.20;18.70;;;;;;;13.07;90.20;101228.05;5220705;56;1143410;-73
2022/10/04 18:33:36;;;;;;;47.95;28.98;;;;;;;13.03;90.88;101230.09;5221402;56;1143116;-72
2022/10/04 18:38:47;;;;;;;31.53;13.83;;;;;;;13.15;91.48;101233.16;5196290;56;1143168;-68
2022/10/04 18:44:06;;;;;;;35.77;15.53;;;;;;;13.01;91.07;101238.16;5187841;56;1143197;-70
2022/10/04 18:49:26;;;;;;;25.80;13.87;;;;;;;12.93;91.60;101243.70;5193833;56;1143105;-72
2022/10/04 18:54:59;;;;;;;32.33;16.33;;;;;;;12.84;92.00;101246.56;5202897;56;1143243;-67
2022/10/04 19:05:43;;;;;;;45.47;32.30;;;;;;;12.60;92.32;101251.06;4956788;59;1141138;-67
2022/10/04 19:11:11;;;;;;;33.47;15.20;;;;;;;12.42;92.82;101273.64;4933688;59;1141300;-67
2022/10/04 19:16:51;;;;;;;25.23;10.83;;;;;;;12.30;93.35;101263.45;4947062;59;1141303;-70
2022/10/04 19:22:09;;;;;;;16.20;8.87;;;;;;;12.21;93.88;101278.25;4962804;59;1141299;-67
2022/10/04 19:27:35;;;;;;;22.87;9.07;;;;;;;12.23;94.24;101276.30;4960893;59;1137171;-65
2022/10/04 19:32:48;;;;;;;21.13;10.93;;;;;;;12.24;94.39;101265.22;4895964;59;1141314;-71
2022/10/04 19:38:24;;;;;;;33.43;10.20;;;;;;;12.23;94.62;101268.34;5131778;56;1143214;-67
2022/10/04 19:44:01;;;;;;;28.40;11.10;;;;;;;12.19;94.76;101263.40;5219130;56;1143175;-67
2022/10/04 19:49:31;;;;;;;33.33;15.40;;;;;;;12.20;95.24;101252.68;5103362;57;1143224;-68
2022/10/04 19:54:40;;;;;;;34.47;12.77;;;;;;;12.34;95.51;101266.26;5191877;56;1143213;-68
2022/10/04 19:59:47;;;;;;;33.83;14.87;;;;;;;12.26;94.36;101273.91;5220824;56;1143175;-67
2022/10/04 20:04:52;;;;;;;33.60;15.83;;;;;;;12.36;95.66;101266.16;5220854;56;1143222;-70
2022/10/04 20:10:25;;;;;;;30.77;14.83;;;;;;;12.46;95.54;101272.47;5220925;56;1143309;-69
2022/10/04 20:15:39;;;;;;;25.03;10.87;;;;;;;12.44;95.22;101271.73;5218943;56;1143223;-70
2022/10/04 20:20:58;;;;;;;25.83;9.67;;;;;;;12.24;94.70;101274.50;5220069;56;1143251;-69
2022/10/04 20:26:06;;;;;;;27.00;11.33;;;;;;;12.19;95.38;101272.20;5192818;56;1139139;-68
2022/10/04 20:31:29;;;;;;;34.03;14.03;;;;;;;12.22;95.47;101278.58;5164822;56;1141171;-67
2022/10/04 20:36:50;;;;;;;30.93;13.33;;;;;;;12.26;95.35;101289.83;5251638;55;1141116;-68
2022/10/04 20:42:30;;;;;;;23.43;10.13;;;;;;;12.26;95.49;101296.45;5210215;55;1141159;-66
2022/10/04 20:47:47;;;;;;;21.23;9.77;;;;;;;12.27;95.52;101302.13;5166004;56;1139055;-70
2022/10/04 20:52:57;;;;;;;16.73;7.90;;;;;;;12.07;95.16;101305.39;5131788;56;1141204;-66
2022/10/04 20:58:22;;;;;;;19.77;10.70;;;;;;;11.85;95.50;101300.27;5219171;56;1141043;-67
2022/10/04 21:03:29;;;;;;;23.53;10.30;;;;;;;11.84;96.31;101293.27;5199581;56;1143445;-68
2022/10/04 21:08:36;;;;;;;27.10;9.93;;;;;;;11.79;96.13;101302.48;5209914;56;1143436;-65
2022/10/04 21:13:56;;;;;;;14.10;8.80;;;;;;;11.79;96.49;101311.77;5191908;55;1141089;-68
2022/10/04 21:19:38;;;;;;;16.65;8.40;;;;;;;11.67;96.73;101306.81;5307994;55;1141090;-68
2022/10/04 21:24:52;;;;;;;21.57;8.70;;;;;;;11.59;97.47;101303.87;5308325;55;1141062;-68
2022/10/04 21:30:01;;;;;;;19.70;6.10;;;;;;;11.49;97.78;101304.95;5308464;55;1141357;-64
2022/10/04 21:35:08;;;;;;;19.63;7.27;;;;;;;11.39;97.86;101309.20;5291317;55;1141072;-69
2022/10/04 21:40:14;;;;;;;16.97;6.73;;;;;;;11.31;98.25;101303.56;5286381;55;1141103;-68
2022/10/04 21:45:20;;;;;;;20.40;7.53;;;;;;;11.24;98.51;101311.57;5263097;55;1141401;-70
2022/10/04 21:50:26;;;;;;;20.87;6.77;;;;;;;11.17;98.89;101304.50;5265038;55;1141120;-67
2022/10/04 21:55:31;;;;;;;9.80;6.57;;;;;;;11.18;99.56;101308.00;5273151;55;1141083;-68
2022/10/04 22:00:37;;;;;;;17.30;6.37;;;;;;;11.16;99.79;101304.13;5310387;55;1139050;-70
2022/10/04 22:05:44;;;;;;;13.27;5.40;;;;;;;11.17;100.00;101293.91;5309993;55;1141147;-67
2022/10/04 22:10:49;;;;;;;17.23;6.37;;;;;;;11.32;100.00;101295.99;5310329;55;1143227;-67
2022/10/04 22:15:57;;;;;;;20.90;6.03;;;;;;;11.41;100.00;101289.23;5289846;55;1143223;-68
2022/10/04 22:21:03;;;;;;;18.00;7.00;;;;;;;11.42;100.00;101283.84;5278429;56;1143435;-69
2022/10/04 22:26:16;;;;;;;11.27;6.30;;;;;;;11.25;100.00;101286.79;5278561;55;1143218;-71
2022/10/04 22:31:27;;;;;;;11.03;5.25;;;;;;;11.14;100.00;101282.70;5278980;56;1141110;-70
2022/10/04 22:36:40;;;;;;;14.80;5.37;;;;;;;11.05;100.00;101272.72;5278450;56;1141104;-65
2022/10/04 22:41:58;;;;;;;14.38;6.85;;;;;;;11.00;100.00;101274.34;5280374;55;1141142;-68
2022/10/04 22:47:08;;;;;;;17.87;9.93;;;;;;;11.02;100.00;101253.92;5212147;56;1141138;-68
2022/10/04 22:52:21;;;;;;;30.17;18.33;;;;;;;11.02;100.00;101251.27;5222158;56;1141103;-69
2022/10/04 22:57:27;;;;;;;14.43;6.78;;;;;;;10.97;100.00;101244.61;5179484;56;1143868;-70
2022/10/04 23:02:33;;;;;;;19.83;6.47;;;;;;;10.89;100.00;101235.38;5196638;56;1141143;-72
2022/10/04 23:07:39;;;;;;;12.80;6.43;;;;;;;10.85;100.00;101223.30;5191431;56;1141082;-72
2022/10/04 23:12:49;;;;;;;14.40;6.73;;;;;;;10.80;100.00;101223.25;5191478;55;1141064;-64
2022/10/04 23:17:56;;;;;;;16.50;6.73;;;;;;;10.81;100.00;101220.98;5222293;56;1141151;-72
2022/10/04 23:23:04;;;;;;;19.90;7.03;;;;;;;10.74;100.00;101217.89;5222049;56;1139280;-66
2022/10/04 23:28:17;;;;;;;11.95;6.20;;;;;;;10.75;100.00;101215.62;5240006;56;1143445;-70
2022/10/04 23:33:24;;;;;;;13.80;6.15;;;;;;;10.78;100.00;101217.21;5220946;56;1143171;-71
2022/10/04 23:38:30;;;;;;;11.55;5.83;;;;;;;10.73;100.00;101224.13;5219928;56;1143211;-69
2022/10/04 23:43:36;;;;;;;11.30;5.30;;;;;;;10.72;100.00;101216.29;5221611;56;1143437;-68
2022/10/04 23:48:42;;;;;;;16.47;6.30;;;;;;;10.72;100.00;101210.52;5247313;56;1143235;-64
2022/10/04 23:53:50;;;;;;;22.25;5.78;;;;;;;10.67;100.00;101211.33;5216842;56;1143164;-70
2022/10/04 23:58:58;;;;;;;11.47;6.00;;;;;;;10.66;100.00;101210.95;5247504;56;1143300;-65
